Time;durP1;ratioP1;P1;durP2;ratioP2;P2;SDS_P1;SDS_P2;PMS_P1;PMS_P2;Temp;Humidity;BMP_temperature;BMP_pressure;BME280_temperature;BME280_humidity;BME280_pressure;Samples;Min_cycle;Max_cycle;Signal;HPM_P1;HPM_P2
2023/03/20 00:00:13;;;;;;;16.52;8.15;;;6.90;99.90;;;;;;5053102;28;20053;-19
2023/03/20 00:02:39;;;;;;;11.35;6.63;;;6.80;99.90;;;;;;5053380;28;20057;-19
2023/03/20 00:05:17;;;;;;;11.48;6.57;;;6.80;99.90;;;;;;5051794;28;20085;-20
2023/03/20 00:07:44;;;;;;;9.65;6.03;;;6.80;99.90;;;;;;5053056;28;20068;-19
2023/03/20 00:10:10;;;;;;;13.48;5.22;;;6.70;99.90;;;;;;5053032;28;20095;-19
2023/03/20 00:12:36;;;;;;;10.57;5.57;;;6.70;99.90;;;;;;5052937;28;20136;-19
2023/03/20 00:15:05;;;;;;;8.68;4.75;;;6.70;99.90;;;;;;5053529;28;20044;-19
2023/03/20 00:17:31;;;;;;;11.73;4.13;;;6.70;99.90;;;;;;5052969;28;20116;-19
2023/03/20 00:19:57;;;;;;;7.60;4.28;;;6.70;99.90;;;;;;5051832;28;20446;-19
2023/03/20 00:22:23;;;;;;;8.05;4.57;;;6.60;99.90;;;;;;5055669;28;20045;-20
2023/03/20 00:24:48;;;;;;;8.77;5.18;;;6.70;99.90;;;;;;5056487;28;20037;-19
2023/03/20 00:27:16;;;;;;;7.10;4.68;;;6.60;99.90;;;;;;5055962;28;20080;-19
2023/03/20 00:29:43;;;;;;;9.43;4.55;;;6.60;99.90;;;;;;5056474;28;20075;-19
2023/03/20 00:32:13;;;;;;;12.75;5.97;;;6.60;99.90;;;;;;5055920;28;20131;-19
2023/03/20 00:34:38;;;;;;;7.82;4.65;;;6.60;99.90;;;;;;5055831;28;20047;-19
2023/03/20 00:37:04;;;;;;;10.07;5.30;;;6.60;99.90;;;;;;5056235;28;20056;-19
2023/03/20 00:39:30;;;;;;;8.70;5.25;;;6.60;99.90;;;;;;5022330;28;20400;-19
2023/03/20 00:42:05;;;;;;;11.80;5.80;;;6.60;99.90;;;;;;5055148;28;20084;-19
2023/03/20 00:44:37;;;;;;;11.02;5.10;;;6.60;99.90;;;;;;5056164;28;20044;-19
2023/03/20 00:47:12;;;;;;;9.98;4.50;;;6.60;99.90;;;;;;5056593;28;20041;-19
2023/03/20 00:49:38;;;;;;;8.45;3.88;;;6.60;99.90;;;;;;5056779;28;20049;-19
2023/03/20 00:52:05;;;;;;;7.88;4.28;;;6.50;99.90;;;;;;5056160;28;20049;-19
2023/03/20 00:54:31;;;;;;;8.60;4.60;;;6.50;99.90;;;;;;5054981;28;20071;-19
2023/03/20 00:57:16;;;;;;;9.32;5.10;;;6.50;99.90;;;;;;5056057;28;20047;-19
2023/03/20 01:00:11;;;;;;;11.55;4.47;;;6.50;99.90;;;;;;5056884;28;20059;-19
2023/03/20 01:02:37;;;;;;;7.25;4.88;;;6.50;99.90;;;;;;5053767;28;20518;-19
2023/03/20 01:05:04;;;;;;;14.07;5.03;;;6.50;99.90;;;;;;5054673;28;20048;-19
2023/03/20 01:07:30;;;;;;;10.73;5.47;;;6.50;99.90;;;;;;5055534;28;20446;-19
2023/03/20 01:09:56;;;;;;;9.68;5.82;;;6.50;99.90;;;;;;5056611;28;20052;-19
2023/03/20 01:12:22;;;;;;;13.60;5.88;;;6.60;99.90;;;;;;5055395;28;20451;-19
2023/03/20 01:14:54;;;;;;;8.93;5.38;;;6.60;99.90;;;;;;5055689;28;20049;-19
2023/03/20 01:17:22;;;;;;;11.43;5.40;;;6.60;99.90;;;;;;5038124;28;20060;-19
2023/03/20 01:19:48;;;;;;;14.50;5.93;;;6.60;99.90;;;;;;5055663;28;20128;-19
2023/03/20 01:22:14;;;;;;;11.23;5.72;;;6.60;99.90;;;;;;5056150;28;20052;-19
2023/03/20 01:24:40;;;;;;;12.77;6.45;;;6.60;99.90;;;;;;5055416;28;20048;-19
2023/03/20 01:27:14;;;;;;;18.10;6.53;;;6.60;99.90;;;;;;5055434;28;20136;-19
2023/03/20 01:29:41;;;;;;;18.73;6.15;;;6.60;99.90;;;;;;5055205;28;20518;-19
2023/03/20 01:32:19;;;;;;;16.80;7.55;;;6.60;99.90;;;;;;5054924;28;20141;-19
2023/03/20 01:34:46;;;;;;;14.05;6.28;;;6.60;99.90;;;;;;5055232;28;20041;-19
2023/03/20 01:37:16;;;;;;;15.25;6.82;;;6.60;99.90;;;;;;5037257;28;20136;-20
2023/03/20 01:39:42;;;;;;;19.73;7.20;;;6.60;99.90;;;;;;5056331;28;20047;-19
2023/03/20 01:42:14;;;;;;;13.30;6.53;;;6.60;99.90;;;;;;5054007;28;20049;-19
2023/03/20 01:44:40;;;;;;;16.73;6.68;;;6.60;99.90;;;;;;5055026;28;20123;-19
2023/03/20 01:47:16;;;;;;;12.57;6.68;;;6.60;99.90;;;;;;5055045;28;20130;-19
2023/03/20 01:50:21;;;;;;;13.43;6.53;;;6.60;99.90;;;;;;5054852;28;20383;-19
2023/03/20 01:52:51;;;;;;;18.25;7.00;;;6.60;99.90;;;;;;5054137;28;20136;-19
2023/03/20 01:55:17;;;;;;;16.67;7.55;;;6.60;99.90;;;;;;5054845;28;20049;-19
2023/03/20 01:57:44;;;;;;;16.77;7.53;;;6.60;99.90;;;;;;5037266;28;20052;-19
2023/03/20 02:00:14;;;;;;;18.52;8.77;;;6.60;99.90;;;;;;5054802;28;20119;-19
2023/03/20 02:02:42;;;;;;;17.40;8.25;;;6.60;99.90;;;;;;5053292;28;20402;-19
2023/03/20 02:05:12;;;;;;;20.88;8.15;;;6.70;99.90;;;;;;5054852;28;20071;-19
2023/03/20 02:07:38;;;;;;;16.33;7.63;;;6.70;99.90;;;;;;5054895;28;20123;-19
2023/03/20 02:10:09;;;;;;;21.92;8.80;;;6.70;99.90;;;;;;5055080;28;20047;-19
2023/03/20 02:12:36;;;;;;;22.83;8.25;;;6.70;99.90;;;;;;5037168;28;20051;-19
2023/03/20 02:15:04;;;;;;;17.23;7.82;;;6.70;99.90;;;;;;5054557;28;20041;-20
2023/03/20 02:17:30;;;;;;;21.52;8.60;;;6.80;99.90;;;;;;5054487;28;20052;-19
2023/03/20 02:20:16;;;;;;;18.65;8.80;;;6.80;99.90;;;;;;5054405;28;20049;-19
2023/03/20 02:23:10;;;;;;;17.50;9.25;;;6.80;99.90;;;;;;5054949;28;20471;-19
2023/03/20 02:26:27;;;;;;;25.45;9.23;;;6.80;99.90;;;;;;5054364;28;20056;-19
2023/03/20 02:29:23;;;;;;;18.50;8.63;;;6.80;99.90;;;;;;5052728;28;20526;-19
2023/03/20 02:32:17;;;;;;;24.15;8.98;;;6.80;99.90;;;;;;5054231;28;20060;-19
2023/03/20 02:35:02;;;;;;;20.58;9.38;;;6.80;99.90;;;;;;5054198;28;20052;-19
2023/03/20 02:38:02;;;;;;;22.20;9.50;;;6.80;99.90;;;;;;5052577;28;20084;-19
2023/03/20 02:40:47;;;;;;;21.70;8.57;;;6.90;99.90;;;;;;5052825;28;20049;-19
2023/03/20 02:43:31;;;;;;;19.58;8.93;;;6.90;99.90;;;;;;5054050;28;20048;-19
2023/03/20 02:46:00;;;;;;;20.38;8.60;;;6.90;99.90;;;;;;5054016;28;20048;-19
2023/03/20 02:48:47;;;;;;;20.48;8.88;;;6.90;99.90;;;;;;5053907;28;20048;-19
2023/03/20 02:51:30;;;;;;;15.30;7.72;;;6.90;99.90;;;;;;5036563;28;20502;-19
2023/03/20 02:54:08;;;;;;;18.48;8.82;;;6.90;99.90;;;;;;5053845;28;20495;-19
2023/03/20 02:56:42;;;;;;;21.70;8.73;;;6.90;99.90;;;;;;5053723;28;20483;-19
2023/03/20 02:59:39;;;;;;;19.40;8.63;;;7.00;99.90;;;;;;5052785;28;20075;-19
2023/03/20 03:02:15;;;;;;;22.38;9.35;;;7.00;99.90;;;;;;5053390;28;20394;-19
2023/03/20 03:04:50;;;;;;;23.77;8.27;;;7.00;99.90;;;;;;5053317;28;20049;-19
2023/03/20 03:07:20;;;;;;;21.65;8.55;;;6.90;99.90;;;;;;5054425;28;20049;-19
2023/03/20 03:10:00;;;;;;;23.95;9.40;;;6.90;99.90;;;;;;5036362;28;20044;-19
2023/03/20 03:12:30;;;;;;;20.42;9.65;;;7.00;99.90;;;;;;5052619;28;20424;-19
2023/03/20 03:15:01;;;;;;;23.52;8.90;;;7.00;99.90;;;;;;5053862;28;20041;-19
2023/03/20 03:17:31;;;;;;;20.75;7.90;;;7.00;99.90;;;;;;5052546;28;20578;-19
2023/03/20 03:20:01;;;;;;;17.90;8.65;;;7.00;99.90;;;;;;5053487;28;20099;-19
2023/03/20 03:22:27;;;;;;;23.10;8.85;;;7.00;99.90;;;;;;5053434;28;20048;-19
2023/03/20 03:24:54;;;;;;;23.23;9.60;;;7.00;99.90;;;;;;5054120;28;20037;-19
2023/03/20 03:27:22;;;;;;;23.27;9.02;;;7.00;99.90;;;;;;5052338;28;20403;-19
2023/03/20 03:30:01;;;;;;;23.92;9.68;;;7.00;99.90;;;;;;5053171;28;20075;-19
2023/03/20 03:32:32;;;;;;;20.58;9.38;;;7.10;99.90;;;;;;5053430;28;20091;-19
2023/03/20 03:34:59;;;;;;;23.85;10.15;;;7.00;99.90;;;;;;5053396;28;20045;-19
2023/03/20 03:37:35;;;;;;;26.88;10.88;;;7.00;99.90;;;;;;5052018;28;20399;-19
2023/03/20 03:40:10;;;;;;;18.13;10.30;;;7.00;99.90;;;;;;5052987;28;20499;-20
2023/03/20 03:42:50;;;;;;;18.63;10.02;;;7.10;99.90;;;;;;5053125;28;20057;-19
2023/03/20 03:45:21;;;;;;;20.73;9.30;;;7.10;99.90;;;;;;5052012;28;20052;-20
2023/03/20 03:48:02;;;;;;;19.40;8.88;;;7.10;99.90;;;;;;5053573;28;20064;-19
2023/03/20 03:50:49;;;;;;;20.60;9.95;;;7.10;99.90;;;;;;5053785;28;20426;-19
2023/03/20 03:53:21;;;;;;;20.95;9.93;;;7.10;99.90;;;;;;5053180;28;20186;-19
2023/03/20 03:55:52;;;;;;;22.83;10.32;;;7.10;99.90;;;;;;5054388;28;20045;-19
2023/03/20 03:58:25;;;;;;;17.60;9.65;;;7.10;99.90;;;;;;5057129;28;20053;-19
2023/03/20 04:00:53;;;;;;;17.63;9.65;;;7.10;99.90;;;;;;5057136;28;20499;-19
2023/03/20 04:03:23;;;;;;;16.35;9.65;;;7.10;99.90;;;;;;5056926;28;20045;-19
2023/03/20 04:05:52;;;;;;;16.15;8.43;;;7.10;99.90;;;;;;5056963;28;20053;-19
2023/03/20 04:08:17;;;;;;;22.25;9.80;;;7.10;99.90;;;;;;5056905;28;20399;-19
2023/03/20 04:10:43;;;;;;;15.98;8.75;;;7.20;99.90;;;;;;5056887;28;20052;-19
2023/03/20 04:13:10;;;;;;;15.80;8.38;;;7.20;99.90;;;;;;5056735;28;20051;-19
2023/03/20 04:15:37;;;;;;;21.23;10.30;;;7.20;99.90;;;;;;5056751;28;20084;-19
2023/03/20 04:18:03;;;;;;;18.83;9.75;;;7.10;99.90;;;;;;5056613;28;20115;-19
2023/03/20 04:20:29;;;;;;;18.52;8.60;;;7.10;99.90;;;;;;5057284;28;20128;-19
2023/03/20 04:22:55;;;;;;;14.95;8.30;;;7.20;99.90;;;;;;5055501;28;20088;-20
2023/03/20 04:25:25;;;;;;;17.33;8.55;;;7.10;99.90;;;;;;5056613;28;20472;-19
2023/03/20 04:27:51;;;;;;;16.40;9.07;;;7.20;99.90;;;;;;5056951;28;20049;-19
2023/03/20 04:30:17;;;;;;;14.68;7.53;;;7.10;99.90;;;;;;5056208;28;20111;-20
2023/03/20 04:32:43;;;;;;;15.25;8.25;;;7.10;99.90;;;;;;5057081;28;20048;-19
2023/03/20 04:35:09;;;;;;;15.80;8.38;;;7.10;99.90;;;;;;5056501;28;20505;-19
2023/03/20 04:37:35;;;;;;;15.88;8.15;;;7.20;99.90;;;;;;5055395;28;20045;-20
2023/03/20 04:40:01;;;;;;;19.27;8.52;;;7.20;99.90;;;;;;5056626;28;20052;-19
2023/03/20 04:42:27;;;;;;;17.35;8.48;;;7.10;99.90;;;;;;5056259;28;20056;-19
2023/03/20 04:44:52;;;;;;;16.52;8.88;;;7.10;99.90;;;;;;5057274;28;20037;-19
2023/03/20 04:47:18;;;;;;;14.73;8.10;;;7.20;99.90;;;;;;5056712;28;20071;-19
2023/03/20 04:49:44;;;;;;;16.92;8.77;;;7.20;99.90;;;;;;5056169;28;20045;-20
2023/03/20 04:52:10;;;;;;;13.35;8.20;;;7.20;99.90;;;;;;5055968;28;20044;-20
2023/03/20 04:54:36;;;;;;;18.73;8.82;;;7.20;99.90;;;;;;5054943;28;20047;-19
2023/03/20 04:57:01;;;;;;;17.90;8.95;;;7.20;99.90;;;;;;5055992;28;20098;-20
2023/03/20 04:59:27;;;;;;;14.77;8.05;;;7.20;99.90;;;;;;5055950;28;20119;-19
2023/03/20 05:01:53;;;;;;;16.15;9.43;;;7.20;99.90;;;;;;5056412;28;20472;-19
2023/03/20 05:04:19;;;;;;;19.70;9.32;;;7.20;99.90;;;;;;5055776;28;20127;-20
2023/03/20 05:06:47;;;;;;;19.17;10.02;;;7.20;99.90;;;;;;5037451;28;20099;-19
2023/03/20 05:09:15;;;;;;;17.58;9.80;;;7.20;99.90;;;;;;5055115;28;20087;-19
2023/03/20 05:11:41;;;;;;;20.67;8.27;;;7.20;99.90;;;;;;5055339;28;20048;-20
2023/03/20 05:14:07;;;;;;;17.10;9.82;;;7.30;99.90;;;;;;5055712;28;20501;-19
2023/03/20 05:16:33;;;;;;;17.30;8.20;;;7.30;99.90;;;;;;5055697;28;20053;-19
2023/03/20 05:18:59;;;;;;;18.98;9.75;;;7.30;99.90;;;;;;5038098;28;20107;-19
2023/03/20 05:21:25;;;;;;;20.60;9.60;;;7.30;99.90;;;;;;5056158;28;20048;-20
2023/03/20 05:23:51;;;;;;;19.25;8.98;;;7.30;99.90;;;;;;5055479;28;20052;-20
2023/03/20 05:26:17;;;;;;;20.48;10.35;;;7.30;99.90;;;;;;5056040;28;20514;-20
2023/03/20 05:28:42;;;;;;;18.50;9.38;;;7.30;99.90;;;;;;5055470;28;20067;-19
2023/03/20 05:31:08;;;;;;;21.85;10.07;;;7.30;99.90;;;;;;5055456;28;20387;-19
2023/03/20 05:33:34;;;;;;;19.77;10.38;;;7.30;99.90;;;;;;5055892;28;20118;-19
2023/03/20 05:36:00;;;;;;;24.70;11.68;;;7.30;99.90;;;;;;5055035;28;20037;-20
2023/03/20 05:38:26;;;;;;;20.45;11.43;;;7.30;99.90;;;;;;5054217;28;20072;-19
2023/03/20 05:40:59;;;;;;;20.08;10.15;;;7.30;99.90;;;;;;5055260;28;20057;-19
2023/03/20 05:43:27;;;;;;;18.25;11.43;;;7.30;99.90;;;;;;5054989;28;20056;-19
2023/03/20 05:45:55;;;;;;;20.55;11.40;;;7.20;99.90;;;;;;5055502;28;20053;-19
2023/03/20 05:48:21;;;;;;;20.88;11.20;;;7.30;99.90;;;;;;5054809;28;20495;-20
2023/03/20 05:50:47;;;;;;;16.60;9.88;;;7.20;99.90;;;;;;5055060;28;20124;-19
2023/03/20 05:53:13;;;;;;;22.23;11.50;;;7.30;99.90;;;;;;5055316;28;20068;-20
2023/03/20 05:55:40;;;;;;;20.30;10.82;;;7.20;99.90;;;;;;5053679;28;20479;-19
2023/03/20 05:58:06;;;;;;;23.15;11.80;;;7.20;99.90;;;;;;5054015;28;20479;-20
2023/03/20 06:00:32;;;;;;;20.98;12.13;;;7.20;99.90;;;;;;5055159;28;20110;-20
2023/03/20 06:02:58;;;;;;;21.73;11.52;;;7.20;99.90;;;;;;5037290;28;20483;-20
2023/03/20 06:05:24;;;;;;;16.92;10.27;;;7.20;99.90;;;;;;5055037;28;20132;-20
2023/03/20 06:07:50;;;;;;;21.88;11.07;;;7.20;99.90;;;;;;5054744;28;20049;-20
2023/03/20 06:10:16;;;;;;;20.42;11.00;;;7.20;99.90;;;;;;5054629;28;20076;-20
2023/03/20 06:12:41;;;;;;;20.48;10.32;;;7.20;99.90;;;;;;5054570;28;20144;-19
2023/03/20 06:15:07;;;;;;;20.23;11.30;;;7.20;99.90;;;;;;5054684;28;20151;-20
2023/03/20 06:17:33;;;;;;;18.85;10.07;;;7.20;99.90;;;;;;5054531;28;20376;-20
2023/03/20 06:20:00;;;;;;;22.40;9.52;;;7.20;99.90;;;;;;5054616;28;20052;-20
2023/03/20 06:22:25;;;;;;;23.10;11.10;;;7.20;99.90;;;;;;5054523;28;20045;-20
2023/03/20 06:24:51;;;;;;;18.55;10.23;;;7.20;99.90;;;;;;5037185;28;20041;-19
2023/03/20 06:27:17;;;;;;;19.88;10.57;;;7.20;99.90;;;;;;5054376;28;20132;-20
2023/03/20 06:29:43;;;;;;;15.50;9.82;;;7.30;99.90;;;;;;5054414;28;20088;-20
2023/03/20 06:32:11;;;;;;;23.17;11.15;;;7.30;99.90;;;;;;5054286;28;20041;-20
2023/03/20 06:34:37;;;;;;;20.23;9.80;;;7.30;99.90;;;;;;5054225;28;20049;-20
2023/03/20 06:37:02;;;;;;;17.33;9.82;;;7.30;99.90;;;;;;5054285;28;20053;-19
2023/03/20 06:39:28;;;;;;;19.08;10.23;;;7.30;99.90;;;;;;5054159;28;20041;-20
2023/03/20 06:41:54;;;;;;;19.85;10.35;;;7.30;99.90;;;;;;5054371;28;20053;-20
2023/03/20 06:44:20;;;;;;;19.10;10.90;;;7.30;99.90;;;;;;5054857;28;20045;-20
2023/03/20 06:46:46;;;;;;;24.00;9.45;;;7.30;99.90;;;;;;5053172;28;20447;-20
2023/03/20 06:49:12;;;;;;;19.30;9.05;;;7.40;99.90;;;;;;5053318;28;20499;-20
2023/03/20 06:51:38;;;;;;;16.48;9.07;;;7.40;99.90;;;;;;5053581;28;20048;-20
2023/03/20 06:54:04;;;;;;;16.05;9.23;;;7.40;99.90;;;;;;5054494;28;20375;-20
2023/03/20 06:56:31;;;;;;;15.75;8.95;;;7.40;99.90;;;;;;5054511;28;20060;-20
2023/03/20 06:58:57;;;;;;;16.98;9.45;;;7.50;99.90;;;;;;5053818;28;20135;-20
2023/03/20 07:01:23;;;;;;;21.80;7.95;;;7.50;99.90;;;;;;5052849;28;20044;-20
2023/03/20 07:03:49;;;;;;;18.58;8.85;;;7.50;99.90;;;;;;5052501;28;20077;-20
2023/03/20 07:06:17;;;;;;;16.67;9.18;;;7.50;99.90;;;;;;5053706;28;20060;-20
2023/03/20 07:08:43;;;;;;;16.63;9.25;;;7.60;99.90;;;;;;5054560;28;20386;-20
2023/03/20 07:11:10;;;;;;;16.15;8.93;;;7.60;99.90;;;;;;5053590;28;20513;-20
2023/03/20 07:13:36;;;;;;;19.48;10.10;;;7.70;99.90;;;;;;5053728;28;20407;-20
2023/03/20 07:16:03;;;;;;;13.43;8.30;;;7.80;99.90;;;;;;5053625;28;20064;-19
2023/03/20 07:18:29;;;;;;;20.15;10.13;;;7.80;99.90;;;;;;5053893;28;20053;-20
2023/03/20 07:21:01;;;;;;;26.40;10.32;;;7.90;99.90;;;;;;5053283;28;20063;-20
2023/03/20 07:23:27;;;;;;;20.60;10.48;;;8.00;99.90;;;;;;5054128;28;20487;-20
2023/03/20 07:25:53;;;;;;;24.77;10.80;;;8.10;99.90;;;;;;5053812;28;20071;-20
2023/03/20 07:28:19;;;;;;;19.55;10.32;;;8.20;99.90;;;;;;5036756;28;20479;-20
2023/03/20 07:30:45;;;;;;;21.17;10.40;;;8.20;99.90;;;;;;5057647;28;20049;-20
2023/03/20 07:33:10;;;;;;;18.80;10.13;;;8.10;99.90;;;;;;5059197;28;20088;-20
2023/03/20 07:35:38;;;;;;;22.38;9.38;;;8.20;99.90;;;;;;5059816;28;20130;-20
2023/03/20 07:38:05;;;;;;;16.70;9.95;;;8.10;99.90;;;;;;5025691;28;20083;-20
2023/03/20 07:40:31;;;;;;;19.85;8.95;;;8.20;99.90;;;;;;5060074;28;20037;-20
2023/03/20 07:42:57;;;;;;;13.77;9.48;;;8.20;99.90;;;;;;5060069;28;20049;-20
2023/03/20 07:45:23;;;;;;;18.30;9.50;;;8.20;99.90;;;;;;5059960;28;20048;-20
2023/03/20 07:47:49;;;;;;;16.02;8.88;;;8.20;99.90;;;;;;5060003;28;20052;-20
2023/03/20 07:50:15;;;;;;;17.83;9.50;;;8.30;99.90;;;;;;5059964;28;20517;-20
2023/03/20 07:52:46;;;;;;;18.67;8.85;;;8.30;99.90;;;;;;5058807;28;20045;-20
2023/03/20 07:55:12;;;;;;;20.40;10.43;;;8.30;99.90;;;;;;5060305;28;20041;-20
2023/03/20 07:57:38;;;;;;;16.63;8.27;;;8.30;99.90;;;;;;5059904;28;20465;-20
2023/03/20 08:00:04;;;;;;;17.40;9.80;;;8.40;99.90;;;;;;5059577;28;20044;-19
2023/03/20 08:02:30;;;;;;;20.42;10.13;;;8.30;99.90;;;;;;5059872;28;20048;-20
2023/03/20 08:04:55;;;;;;;20.33;9.85;;;8.30;99.90;;;;;;5058630;28;20041;-20
2023/03/20 08:07:21;;;;;;;21.13;10.80;;;8.40;99.90;;;;;;5058933;28;20052;-20
2023/03/20 08:09:47;;;;;;;21.23;11.60;;;8.40;99.90;;;;;;5058604;28;20049;-20
2023/03/20 08:12:13;;;;;;;19.52;9.27;;;8.50;99.90;;;;;;5058579;28;20140;-20
2023/03/20 08:14:38;;;;;;;22.52;10.18;;;8.40;99.90;;;;;;5059165;28;20528;-20
2023/03/20 08:17:04;;;;;;;19.40;10.70;;;8.40;99.90;;;;;;5058281;28;20045;-20
2023/03/20 08:19:30;;;;;;;21.38;9.77;;;8.40;99.90;;;;;;5059148;28;20045;-20
2023/03/20 08:21:56;;;;;;;19.13;10.40;;;8.40;99.90;;;;;;5059790;28;20093;-20
2023/03/20 08:24:21;;;;;;;21.75;10.27;;;8.40;99.90;;;;;;5059603;28;20134;-20
2023/03/20 08:26:47;;;;;;;19.77;9.10;;;8.40;99.90;;;;;;5058466;28;20091;-20
2023/03/20 08:29:16;;;;;;;21.70;11.43;;;8.30;99.90;;;;;;5042398;28;20045;-20
2023/03/20 08:31:42;;;;;;;20.00;11.05;;;8.30;99.90;;;;;;5058405;28;20416;-20
2023/03/20 08:34:08;;;;;;;24.27;10.70;;;8.40;99.90;;;;;;5059602;28;20110;-20
2023/03/20 08:36:34;;;;;;;19.83;9.98;;;8.40;99.90;;;;;;5058451;28;20088;-20
2023/03/20 08:39:00;;;;;;;18.38;10.80;;;8.50;99.90;;;;;;5059595;28;20080;-20
2023/03/20 08:41:26;;;;;;;19.23;10.75;;;8.60;99.90;;;;;;5057389;28;20056;-20
2023/03/20 08:43:52;;;;;;;23.13;11.80;;;8.70;99.90;;;;;;5056266;28;20049;-20
2023/03/20 08:46:18;;;;;;;21.45;10.70;;;8.80;99.90;;;;;;5055159;28;20502;-20
2023/03/20 08:48:43;;;;;;;18.67;11.00;;;8.80;99.90;;;;;;5056853;28;20127;-20
2023/03/20 08:51:10;;;;;;;19.90;10.65;;;8.70;99.90;;;;;;5056255;28;20403;-20
2023/03/20 08:53:36;;;;;;;19.48;10.38;;;8.70;99.90;;;;;;5056466;28;20041;-20
2023/03/20 08:56:01;;;;;;;20.60;9.85;;;8.80;99.90;;;;;;5054929;28;20483;-20
2023/03/20 08:58:27;;;;;;;19.48;10.57;;;8.80;99.90;;;;;;5056166;28;20055;-20
2023/03/20 09:00:53;;;;;;;18.95;10.35;;;8.90;99.90;;;;;;5054839;28;20556;-20
2023/03/20 09:03:20;;;;;;;19.20;9.93;;;9.00;99.90;;;;;;5055986;28;20056;-20
2023/03/20 09:05:48;;;;;;;16.33;8.30;;;9.00;99.90;;;;;;5056212;28;20110;-20
2023/03/20 09:08:14;;;;;;;16.33;8.07;;;9.20;99.90;;;;;;5054965;28;20082;-20
2023/03/20 09:10:40;;;;;;;23.60;10.48;;;9.20;99.90;;;;;;5055889;28;20048;-20
2023/03/20 09:13:07;;;;;;;17.35;8.73;;;9.40;99.90;;;;;;5054541;28;20048;-20
2023/03/20 09:15:34;;;;;;;20.17;11.32;;;9.50;99.90;;;;;;5055632;28;20052;-20
2023/03/20 09:18:00;;;;;;;22.38;10.13;;;9.60;99.90;;;;;;5055819;28;20191;-20
2023/03/20 09:20:26;;;;;;;18.67;10.05;;;9.60;99.90;;;;;;5055944;28;20530;-20
2023/03/20 09:22:51;;;;;;;17.98;9.20;;;9.50;99.90;;;;;;5056482;28;20384;-20
2023/03/20 09:25:17;;;;;;;20.00;9.88;;;9.50;99.90;;;;;;5055578;28;20083;-20
2023/03/20 09:27:43;;;;;;;21.48;8.88;;;9.60;99.90;;;;;;5054443;28;20474;-20
2023/03/20 09:30:10;;;;;;;17.50;9.02;;;9.70;99.90;;;;;;5055098;28;20138;-20
2023/03/20 09:32:36;;;;;;;16.80;9.20;;;9.80;99.90;;;;;;5053733;28;20453;-20
2023/03/20 09:35:03;;;;;;;14.63;7.80;;;9.90;99.90;;;;;;5055450;28;20045;-20
2023/03/20 09:37:29;;;;;;;13.45;6.78;;;10.00;99.90;;;;;;5055524;28;20052;-20
2023/03/20 09:39:54;;;;;;;14.50;7.25;;;9.90;99.90;;;;;;5038309;28;20136;-20
2023/03/20 09:42:52;;;;;;;15.13;6.95;;;9.80;99.90;;;;;;5055356;28;20449;-20
2023/03/20 09:45:39;;;;;;;14.95;7.90;;;9.70;99.90;;;;;;5055446;28;20174;-20
2023/03/20 09:48:28;;;;;;;15.90;8.48;;;9.90;99.90;;;;;;5056063;28;20056;-20
2023/03/20 09:51:00;;;;;;;16.65;7.13;;;10.10;99.90;;;;;;5055155;28;20384;-20
2023/03/20 09:53:38;;;;;;;13.60;8.23;;;10.30;99.90;;;;;;5054151;28;20057;-20
2023/03/20 09:56:08;;;;;;;15.15;7.05;;;10.10;99.90;;;;;;5055102;28;20064;-20
2023/03/20 09:58:36;;;;;;;16.70;7.65;;;10.10;99.90;;;;;;5054860;28;20049;-20
2023/03/20 10:01:04;;;;;;;19.05;7.93;;;10.00;99.90;;;;;;5054939;28;20183;-20
2023/03/20 10:03:59;;;;;;;18.70;8.55;;;10.00;99.90;;;;;;5054082;28;20052;-20
2023/03/20 10:06:25;;;;;;;13.68;6.30;;;10.00;99.90;;;;;;5055116;28;20095;-20
2023/03/20 10:08:52;;;;;;;15.13;6.63;;;9.90;99.90;;;;;;5053822;28;20049;-20
2023/03/20 10:11:26;;;;;;;13.20;6.47;;;9.80;99.90;;;;;;5054344;28;20506;-20
2023/03/20 10:14:04;;;;;;;13.32;6.80;;;9.90;99.90;;;;;;5054953;28;20048;-20
2023/03/20 10:16:54;;;;;;;18.55;7.25;;;9.70;99.90;;;;;;5054632;28;20084;-20
2023/03/20 10:19:26;;;;;;;13.93;6.72;;;9.70;99.90;;;;;;5054192;28;20103;-20
2023/03/20 10:22:19;;;;;;;17.58;6.40;;;9.80;99.90;;;;;;5054869;28;20056;-20
2023/03/20 10:24:51;;;;;;;13.88;6.40;;;10.00;99.90;;;;;;5054379;28;20483;-20
2023/03/20 10:27:23;;;;;;;16.95;6.90;;;10.20;99.90;;;;;;5055290;28;20132;-20
2023/03/20 10:30:22;;;;;;;13.20;6.53;;;10.00;99.90;;;;;;5054491;28;20087;-20
2023/03/20 10:33:16;;;;;;;15.52;6.60;;;9.80;99.90;;;;;;5054334;28;20045;-20
2023/03/20 10:35:47;;;;;;;18.92;6.97;;;9.70;99.90;;;;;;5054192;28;20041;-20
2023/03/20 10:38:33;;;;;;;16.48;7.50;;;9.70;99.90;;;;;;5052574;28;20049;-20
2023/03/20 10:40:59;;;;;;;16.85;7.43;;;9.60;99.90;;;;;;5054519;28;20395;-20
2023/03/20 10:43:33;;;;;;;21.58;8.77;;;9.80;99.90;;;;;;5054020;28;20131;-20
2023/03/20 10:46:21;;;;;;;18.83;8.07;;;9.90;99.90;;;;;;5054099;28;20087;-20
2023/03/20 10:48:52;;;;;;;17.60;7.30;;;10.10;99.90;;;;;;5054862;28;20044;-20
2023/03/20 10:51:21;;;;;;;19.00;7.07;;;10.10;99.90;;;;;;5054118;28;20053;-20
2023/03/20 10:54:25;;;;;;;18.17;8.13;;;9.90;99.90;;;;;;5052662;28;20061;-20
2023/03/20 10:56:54;;;;;;;16.45;7.20;;;9.70;99.90;;;;;;5052952;28;20061;-20
2023/03/20 10:59:27;;;;;;;13.25;7.20;;;9.50;99.90;;;;;;5036030;28;20045;-20
2023/03/20 11:01:53;;;;;;;21.30;8.25;;;9.50;99.90;;;;;;5053835;28;20045;-20
2023/03/20 11:04:19;;;;;;;15.90;7.80;;;9.40;99.90;;;;;;5053522;28;20176;-20
2023/03/20 11:07:06;;;;;;;14.63;8.07;;;9.40;99.90;;;;;;5035840;28;20045;-20
2023/03/20 11:09:32;;;;;;;25.02;9.10;;;9.40;99.90;;;;;;5053738;28;20158;-20
2023/03/20 11:12:00;;;;;;;19.00;9.55;;;9.60;99.90;;;;;;5052404;28;20131;-20
2023/03/20 11:14:38;;;;;;;17.48;8.48;;;9.80;99.90;;;;;;5054239;28;20390;-20
2023/03/20 11:17:05;;;;;;;15.50;6.53;;;10.00;99.90;;;;;;5052543;28;20372;-20
2023/03/20 11:19:37;;;;;;;19.48;9.13;;;9.90;99.90;;;;;;5053544;28;20130;-20
2023/03/20 11:22:24;;;;;;;18.27;8.25;;;10.00;99.90;;;;;;5053567;28;20052;-20
2023/03/20 11:25:01;;;;;;;16.33;6.95;;;9.80;99.90;;;;;;5053203;28;20045;-20
2023/03/20 11:27:29;;;;;;;15.00;7.10;;;9.70;99.90;;;;;;5052572;28;20060;-20
2023/03/20 11:29:57;;;;;;;14.57;6.82;;;9.70;99.90;;;;;;5053497;28;20056;-20
2023/03/20 11:32:27;;;;;;;16.50;7.90;;;9.80;99.90;;;;;;5054303;28;20067;-20
2023/03/20 11:34:57;;;;;;;13.85;7.43;;;9.90;99.90;;;;;;5053062;28;20060;-20
2023/03/20 11:37:28;;;;;;;13.65;6.15;;;10.00;99.90;;;;;;5053188;28;20057;-20
2023/03/20 11:40:00;;;;;;;16.80;5.47;;;9.80;99.90;;;;;;5053495;28;20123;-20
2023/03/20 11:42:29;;;;;;;15.02;6.82;;;9.60;99.90;;;;;;5052173;28;20466;-20
2023/03/20 11:45:00;;;;;;;14.43;6.93;;;9.60;99.90;;;;;;5053298;28;20045;-20
2023/03/20 11:47:30;;;;;;;14.60;7.10;;;9.50;99.90;;;;;;5053394;28;20057;-20
2023/03/20 11:49:59;;;;;;;18.27;6.80;;;9.40;99.90;;;;;;5052393;28;20414;-20
2023/03/20 11:52:37;;;;;;;11.50;5.32;;;9.20;99.90;;;;;;5052143;28;20048;-20
2023/03/20 11:55:21;;;;;;;13.90;5.25;;;9.10;99.90;;;;;;5053913;28;20446;-20
2023/03/20 11:57:48;;;;;;;10.40;4.22;;;9.10;99.90;;;;;;5053280;28;20053;-20
2023/03/20 12:00:23;;;;;;;8.15;3.58;;;9.20;99.90;;;;;;5052262;28;20102;-20
2023/03/20 12:02:49;;;;;;;6.63;2.90;;;9.20;99.90;;;;;;5052228;28;20048;-20
2023/03/20 12:05:28;;;;;;;8.20;3.00;;;9.10;99.90;;;;;;5053182;28;20123;-20
2023/03/20 12:07:58;;;;;;;4.43;1.92;;;8.70;99.90;;;;;;5053135;28;20483;-20
2023/03/20 12:10:29;;;;;;;13.48;4.25;;;8.50;99.90;;;;;;5052808;28;20582;-19
2023/03/20 12:13:11;;;;;;;5.65;2.72;;;8.50;99.90;;;;;;5053080;28;20049;-19
2023/03/20 12:15:42;;;;;;;8.10;3.75;;;8.50;99.90;;;;;;5036527;28;20056;-19
2023/03/20 12:18:15;;;;;;;10.23;3.40;;;8.60;99.90;;;;;;5056936;28;20199;-19
2023/03/20 12:21:03;;;;;;;11.45;4.95;;;8.60;99.90;;;;;;5039308;28;20102;-19
2023/03/20 12:23:36;;;;;;;11.88;4.32;;;8.70;99.90;;;;;;5055432;28;20495;-19
2023/03/20 12:26:06;;;;;;;12.03;4.63;;;8.70;99.90;;;;;;5056762;28;20084;-19
2023/03/20 12:28:54;;;;;;;10.70;4.93;;;8.80;99.90;;;;;;5056453;28;20568;-19
2023/03/20 12:31:49;;;;;;;12.57;4.38;;;8.80;99.90;;;;;;5055663;28;20048;-19
2023/03/20 12:34:21;;;;;;;11.23;5.28;;;8.70;99.90;;;;;;5056600;28;20045;-19
2023/03/20 12:36:51;;;;;;;11.68;6.03;;;8.70;99.90;;;;;;5057137;28;20061;-19
2023/03/20 12:39:24;;;;;;;11.20;5.80;;;8.60;99.90;;;;;;5056759;28;20398;-19
2023/03/20 12:42:11;;;;;;;13.77;6.75;;;8.50;99.90;;;;;;5057090;28;20080;-19
2023/03/20 12:44:59;;;;;;;15.43;6.28;;;8.50;99.90;;;;;;5056349;28;20518;-19
2023/03/20 12:47:39;;;;;;;16.25;7.50;;;8.60;99.90;;;;;;5056373;28;20061;-19
2023/03/20 12:50:25;;;;;;;17.35;7.57;;;8.40;99.90;;;;;;5056862;28;20057;-19
2023/03/20 12:53:00;;;;;;;11.48;6.43;;;8.40;99.90;;;;;;5055639;28;20045;-19
2023/03/20 12:55:49;;;;;;;16.02;7.45;;;8.30;99.90;;;;;;5056220;28;20045;-19
2023/03/20 12:58:43;;;;;;;12.77;7.60;;;8.30;99.90;;;;;;5056168;28;20041;-19
2023/03/20 13:01:32;;;;;;;16.40;8.30;;;8.30;99.90;;;;;;5056035;28;20080;-19
2023/03/20 13:04:19;;;;;;;14.55;7.57;;;8.30;99.90;;;;;;5055939;28;20040;-25